createdAt,value
2018-04-25T00:02:22.967Z,14.80
2018-04-25T00:04:51.361Z,14.70
2018-04-25T00:07:18.880Z,14.70
2018-04-25T00:09:47.187Z,14.70
2018-04-25T00:12:14.705Z,14.60
2018-04-25T00:14:42.241Z,14.60
2018-04-25T00:17:09.773Z,14.70
2018-04-25T00:19:37.340Z,14.70
2018-04-25T00:22:04.872Z,14.70
2018-04-25T00:24:33.276Z,14.70
2018-04-25T00:27:00.798Z,14.60
2018-04-25T00:29:29.817Z,14.60
2018-04-25T00:31:58.203Z,14.70
2018-04-25T00:34:25.789Z,14.70
2018-04-25T00:36:53.310Z,14.70
2018-04-25T00:39:21.608Z,14.70
2018-04-25T00:41:49.133Z,14.70
2018-04-25T00:44:17.419Z,14.70
2018-04-25T00:46:45.829Z,14.70
2018-04-25T00:49:13.388Z,14.70
2018-04-25T00:51:40.940Z,14.70
2018-04-25T00:54:08.508Z,14.70
2018-04-25T00:56:36.033Z,14.70
2018-04-25T00:59:04.335Z,14.70
2018-04-25T01:01:31.860Z,14.60
2018-04-25T01:03:59.465Z,14.60
2018-04-25T01:06:27.028Z,14.60
2018-04-25T01:08:54.558Z,14.60
2018-04-25T01:11:22.852Z,14.60
2018-04-25T01:13:50.411Z,14.60
2018-04-25T01:16:17.936Z,14.60
2018-04-25T01:18:45.444Z,14.60
2018-04-25T01:21:12.967Z,14.60
2018-04-25T01:23:41.376Z,14.60
2018-04-25T01:26:08.889Z,14.60
2018-04-25T01:31:53.092Z,14.50
2018-04-25T01:34:42.102Z,14.50
2018-04-25T01:37:31.351Z,14.40
2018-04-25T01:40:10.376Z,14.40
2018-04-25T01:42:48.754Z,14.40
2018-04-25T01:45:23.684Z,14.40
2018-04-25T01:47:57.437Z,14.30
2018-04-25T01:50:31.748Z,14.30
2018-04-25T01:53:11.164Z,14.30
2018-04-25T01:55:51.408Z,14.20
2018-04-25T01:58:31.612Z,14.20
2018-04-25T02:01:11.040Z,14.20
2018-04-25T02:03:45.551Z,14.20
2018-04-25T02:06:13.092Z,14.20
2018-04-25T02:08:41.359Z,14.20
2018-04-25T02:11:09.667Z,14.20
2018-04-25T02:13:37.203Z,14.20
2018-04-25T02:16:05.478Z,14.20
2018-04-25T02:18:35.738Z,14.20
2018-04-25T02:21:03.272Z,14.10
2018-04-25T02:23:31.555Z,14.10
2018-04-25T02:25:59.068Z,14.10
2018-04-25T02:28:26.639Z,14.10
2018-04-25T02:30:55.673Z,14.10
2018-04-25T02:33:23.246Z,14.10
2018-04-25T02:35:50.781Z,14.10
2018-04-25T02:38:19.082Z,14.10
2018-04-25T02:40:46.609Z,14.10
2018-04-25T02:43:14.910Z,14.10
2018-04-25T02:45:44.420Z,14.10
2018-04-25T02:48:11.990Z,14.10
2018-04-25T02:50:39.530Z,14.10
2018-04-25T02:53:07.055Z,14.10
2018-04-25T02:55:34.566Z,14.10
2018-04-25T02:58:02.124Z,14.10
2018-04-25T03:00:29.678Z,14.00
2018-04-25T03:02:57.218Z,14.00
2018-04-25T03:05:25.515Z,14.00
2018-04-25T03:07:53.071Z,13.90
2018-04-25T03:10:20.636Z,14.00
2018-04-25T03:12:48.194Z,14.00
2018-04-25T03:15:15.754Z,14.00
2018-04-25T03:17:43.277Z,14.00
2018-04-25T03:20:10.793Z,14.00
2018-04-25T03:22:38.377Z,14.00
2018-04-25T03:25:05.860Z,14.00
2018-04-25T03:27:33.459Z,14.00
2018-04-25T03:30:00.964Z,14.00
2018-04-25T03:32:28.579Z,14.00
2018-04-25T03:34:56.139Z,13.90
2018-04-25T03:37:23.699Z,14.00
2018-04-25T03:39:51.255Z,13.90
2018-04-25T03:42:18.837Z,13.90
2018-04-25T03:44:46.348Z,13.90
2018-04-25T03:47:14.633Z,13.80
2018-04-25T03:49:42.921Z,13.70
2018-04-25T03:52:11.235Z,13.70
2018-04-25T03:54:38.757Z,13.70
2018-04-25T03:57:06.338Z,13.60
2018-04-25T03:59:33.855Z,13.60
2018-04-25T04:02:02.142Z,13.50
2018-04-25T04:04:30.445Z,13.40
2018-04-25T04:06:57.956Z,13.40
2018-04-25T04:09:25.466Z,13.40
2018-04-25T04:11:52.993Z,13.40
2018-04-25T04:14:21.286Z,13.30
2018-04-25T04:16:48.870Z,13.30
2018-04-25T04:19:16.380Z,13.30
2018-04-25T04:21:43.897Z,13.30
2018-04-25T04:24:11.468Z,13.30
2018-04-25T04:26:38.990Z,13.30
2018-04-25T04:29:06.500Z,13.20
2018-04-25T04:31:34.774Z,13.10
2018-04-25T04:34:02.385Z,13.10
2018-04-25T04:36:29.914Z,13.20
2018-04-25T04:38:57.428Z,13.10
2018-04-25T04:41:24.982Z,12.90
2018-04-25T04:43:52.512Z,12.70
2018-04-25T04:46:20.802Z,12.50
2018-04-25T04:48:48.335Z,12.50
2018-04-25T04:51:16.644Z,12.40
2018-04-25T04:53:44.169Z,12.40
2018-04-25T04:56:11.740Z,12.30
2018-04-25T04:58:40.032Z,12.10
2018-04-25T05:01:07.550Z,12.10
2018-04-25T05:03:35.058Z,12.10
2018-04-25T05:06:02.608Z,12.00
2018-04-25T05:08:30.987Z,12.00
2018-04-25T05:10:58.468Z,12.00
2018-04-25T05:13:25.978Z,12.00
2018-04-25T05:15:54.264Z,12.00
2018-04-25T05:18:22.590Z,12.00
2018-04-25T05:20:50.112Z,12.00
2018-04-25T05:23:18.420Z,12.10
2018-04-25T05:25:45.950Z,12.10
2018-04-25T05:28:14.254Z,12.10
2018-04-25T05:30:41.803Z,12.10
2018-04-25T05:33:09.317Z,12.10
2018-04-25T05:35:36.946Z,12.10
2018-04-25T05:38:04.498Z,12.10
2018-04-25T05:40:32.047Z,12.10
2018-04-25T05:42:59.621Z,12.20
2018-04-25T05:45:27.143Z,12.20
2018-04-25T05:47:55.443Z,12.40
2018-04-25T05:50:23.022Z,12.40
2018-04-25T05:52:50.583Z,12.40
2018-04-25T05:55:18.113Z,12.40
2018-04-25T05:57:45.669Z,12.30
2018-04-25T06:00:13.157Z,12.30
2018-04-25T06:02:40.690Z,12.30
2018-04-25T06:05:08.967Z,12.40
2018-04-25T06:07:37.258Z,12.40
2018-04-25T06:10:04.802Z,12.30
2018-04-25T06:12:33.079Z,12.30
2018-04-25T06:15:00.615Z,12.30
2018-04-25T06:17:28.150Z,12.40
2018-04-25T06:19:55.657Z,12.50
2018-04-25T06:22:23.944Z,12.70
2018-04-25T06:24:51.483Z,12.70
2018-04-25T06:27:19.768Z,12.80
2018-04-25T06:29:48.041Z,12.90
2018-04-25T06:32:16.338Z,12.80
2018-04-25T06:34:43.897Z,12.80
2018-04-25T06:37:11.408Z,12.80
2018-04-25T06:39:38.942Z,12.80
2018-04-25T06:42:06.489Z,12.90
2018-04-25T06:44:34.061Z,13.00
2018-04-25T06:47:01.583Z,13.00
2018-04-25T06:49:29.115Z,13.00
2018-04-25T06:51:56.651Z,13.00
2018-04-25T06:54:24.179Z,13.10
2018-04-25T06:56:51.788Z,13.30
2018-04-25T06:59:19.274Z,13.40
2018-04-25T07:01:47.677Z,13.50
2018-04-25T07:04:15.354Z,13.40
2018-04-25T07:06:42.892Z,13.40
2018-04-25T07:09:10.463Z,13.50
2018-04-25T07:11:37.976Z,13.60
2018-04-25T07:14:05.545Z,13.70
2018-04-25T07:16:33.055Z,13.70
2018-04-25T07:19:00.572Z,13.60
2018-04-25T07:21:28.849Z,13.70
2018-04-25T07:23:57.200Z,13.60
2018-04-25T07:26:24.695Z,13.60
2018-04-25T07:28:52.966Z,13.40
2018-04-25T07:31:21.281Z,13.40
2018-04-25T07:33:48.828Z,13.40
2018-04-25T07:36:16.383Z,13.30
2018-04-25T07:38:43.952Z,13.20
2018-04-25T07:41:11.513Z,13.20
2018-04-25T07:43:39.035Z,13.30
2018-04-25T07:46:06.573Z,13.40
2018-04-25T07:48:35.037Z,13.50
2018-04-25T07:51:02.559Z,13.60
2018-04-25T07:53:30.856Z,13.40
2018-04-25T07:55:58.416Z,13.40
2018-04-25T07:58:25.943Z,13.30
2018-04-25T08:00:54.247Z,13.40
2018-04-25T08:03:21.762Z,13.40
2018-04-25T08:05:49.280Z,13.30
2018-04-25T08:08:16.818Z,13.30
2018-04-25T08:10:44.352Z,13.20
2018-04-25T08:13:24.653Z,13.50
2018-04-25T08:16:04.018Z,13.50
2018-04-25T08:18:43.618Z,13.70
2018-04-25T08:21:22.957Z,13.90
2018-04-25T08:23:50.558Z,14.00
2018-04-25T08:26:18.112Z,14.10
2018-04-25T08:28:45.630Z,14.20
2018-04-25T08:31:13.173Z,14.20
2018-04-25T08:33:41.478Z,14.40
2018-04-25T08:36:08.992Z,14.30
2018-04-25T08:38:36.530Z,14.40
2018-04-25T08:41:04.064Z,14.60
2018-04-25T08:43:31.614Z,14.30
2018-04-25T08:45:59.126Z,14.20
2018-04-25T08:48:26.660Z,14.20
2018-04-25T08:50:54.178Z,14.10
2018-04-25T08:53:22.567Z,13.70
2018-04-25T08:55:50.082Z,13.60
2018-04-25T08:58:17.612Z,13.50
2018-04-25T09:00:45.132Z,13.50
2018-04-25T09:03:13.432Z,13.70
2018-04-25T09:05:41.001Z,13.70
2018-04-25T09:08:08.481Z,13.80
2018-04-25T09:10:36.143Z,13.80
2018-04-25T09:13:03.661Z,14.00
2018-04-25T09:15:31.245Z,14.20
2018-04-25T09:17:59.491Z,14.20
2018-04-25T09:20:27.770Z,14.10
2018-04-25T09:22:56.065Z,14.00
2018-04-25T09:25:23.576Z,14.00
2018-04-25T09:27:51.108Z,14.00
2018-04-25T09:30:18.630Z,13.90
2018-04-25T09:32:46.139Z,13.70
2018-04-25T09:35:13.674Z,13.70
2018-04-25T09:37:41.223Z,13.80
2018-04-25T09:40:08.777Z,14.00
2018-04-25T09:42:36.333Z,14.20
2018-04-25T09:45:03.917Z,14.30
2018-04-25T09:47:31.443Z,14.40
2018-04-25T09:49:59.843Z,14.70
2018-04-25T09:52:27.373Z,14.60
2018-04-25T09:54:55.669Z,15.30
2018-04-25T09:57:23.245Z,15.30
2018-04-25T09:59:50.745Z,15.60
2018-04-25T10:02:23.940Z,15.50
2018-04-25T10:04:51.471Z,15.10
2018-04-25T10:07:19.016Z,14.70
2018-04-25T10:09:46.537Z,14.40
2018-04-25T10:12:14.831Z,14.00
2018-04-25T10:14:43.104Z,14.40
2018-04-25T10:17:11.390Z,14.60
2018-04-25T10:19:38.975Z,14.60
2018-04-25T10:22:06.492Z,15.00
2018-04-25T10:24:34.770Z,15.10
2018-04-25T10:27:03.062Z,15.10
2018-04-25T10:29:30.576Z,15.10
2018-04-25T10:31:58.175Z,15.50
2018-04-25T10:34:25.755Z,16.00
2018-04-25T10:36:53.282Z,16.00
2018-04-25T10:39:21.568Z,15.70
2018-04-25T10:41:49.868Z,16.00
2018-04-25T10:44:17.503Z,16.00
2018-04-25T10:46:45.040Z,16.10
2018-04-25T10:49:14.196Z,14.60
2018-04-25T10:51:41.728Z,14.60
2018-04-25T10:54:10.016Z,14.40
2018-04-25T10:56:37.536Z,14.40
2018-04-25T10:59:05.064Z,14.30
2018-04-25T11:01:32.576Z,14.20
2018-04-25T11:04:00.869Z,14.60
2018-04-25T11:06:28.385Z,14.60
2018-04-25T11:08:55.902Z,15.20
2018-04-25T11:11:23.451Z,15.70
2018-04-25T11:13:51.027Z,16.20
2018-04-25T11:16:18.532Z,16.50
2018-04-25T11:18:46.139Z,16.60
2018-04-25T11:21:13.921Z,16.40
2018-04-25T11:23:42.813Z,16.40
2018-04-25T11:26:10.337Z,16.60
2018-04-25T11:28:38.642Z,17.10
2018-04-25T11:31:06.190Z,17.10
2018-04-25T11:33:33.731Z,16.90
2018-04-25T11:36:02.045Z,16.50
2018-04-25T11:38:29.563Z,16.50
2018-04-25T11:40:57.857Z,16.50
2018-04-25T11:43:25.363Z,16.50
2018-04-25T11:45:52.877Z,16.80
2018-04-25T11:48:20.418Z,17.30
2018-04-25T11:50:48.728Z,18.10
2018-04-25T11:53:16.292Z,18.10
2018-04-25T11:55:43.815Z,17.60
2018-04-25T11:58:12.103Z,16.70
2018-04-25T12:00:40.396Z,16.30
2018-04-25T12:03:07.939Z,16.30
2018-04-25T12:05:36.224Z,15.70
2018-04-25T12:08:03.788Z,15.70
2018-04-25T12:10:31.325Z,15.70
2018-04-25T12:12:59.741Z,16.10
2018-04-25T12:15:27.256Z,16.10
2018-04-25T12:17:54.875Z,16.60
2018-04-25T12:20:22.391Z,16.90
2018-04-25T12:22:50.688Z,16.90
2018-04-25T12:25:18.211Z,16.90
2018-04-25T12:27:46.495Z,16.30
2018-04-25T12:30:14.795Z,16.00
2018-04-25T12:32:42.331Z,16.00
2018-04-25T12:35:09.865Z,15.90
2018-04-25T12:37:37.512Z,15.90
2018-04-25T12:40:05.031Z,15.90
2018-04-25T12:42:33.331Z,15.10
2018-04-25T12:45:00.853Z,15.10
2018-04-25T12:47:29.139Z,14.90
2018-04-25T12:49:57.423Z,15.00
2018-04-25T12:52:25.712Z,15.00
2018-04-25T12:54:53.248Z,15.00
2018-04-25T12:57:21.547Z,15.30
2018-04-25T12:59:49.055Z,15.30
2018-04-25T13:02:16.593Z,15.30
2018-04-25T13:04:44.154Z,15.20
2018-04-25T13:07:11.688Z,15.30
2018-04-25T13:09:39.222Z,15.20
2018-04-25T13:12:07.538Z,15.60
2018-04-25T13:14:35.049Z,15.60
2018-04-25T13:17:02.574Z,15.60
2018-04-25T13:19:30.104Z,15.50
2018-04-25T13:21:57.611Z,15.50
2018-04-25T13:24:25.148Z,15.50
2018-04-25T13:26:52.747Z,15.40
2018-04-25T13:29:20.252Z,15.40
2018-04-25T13:31:47.814Z,15.50
2018-04-25T13:34:15.336Z,15.50
2018-04-25T13:36:43.633Z,15.30
2018-04-25T13:39:11.158Z,15.30
2018-04-25T13:41:40.192Z,15.30
2018-04-25T13:44:07.711Z,15.30
2018-04-25T13:46:35.257Z,15.30
2018-04-25T13:49:02.783Z,15.30
2018-04-25T13:51:30.338Z,15.30
2018-04-25T13:53:58.001Z,15.30
2018-04-25T13:56:25.569Z,15.40
2018-04-25T13:58:53.112Z,15.50
2018-04-25T14:01:20.682Z,15.90
2018-04-25T14:03:48.207Z,16.20
2018-04-25T14:06:16.489Z,16.20
2018-04-25T14:08:44.804Z,16.10
2018-04-25T14:11:12.322Z,16.00
2018-04-25T14:13:40.626Z,15.90
2018-04-25T14:16:08.138Z,15.90
2018-04-25T14:18:35.663Z,15.90
2018-04-25T14:21:03.198Z,16.00
2018-04-25T14:23:31.502Z,16.60
2018-04-25T14:25:59.020Z,16.50
2018-04-25T14:28:27.311Z,16.80
2018-04-25T14:30:55.861Z,16.70
2018-04-25T14:33:24.886Z,16.60
2018-04-25T14:35:53.171Z,16.30
2018-04-25T14:38:20.692Z,16.30
2018-04-25T14:40:48.216Z,15.90
2018-04-25T14:43:15.755Z,15.70
2018-04-25T14:45:43.273Z,15.60
2018-04-25T14:48:10.782Z,15.40
2018-04-25T14:50:38.290Z,15.50
2018-04-25T14:53:05.816Z,15.40
2018-04-25T14:55:33.351Z,15.50
2018-04-25T14:58:00.877Z,15.80
2018-04-25T15:00:28.403Z,15.90
2018-04-25T15:02:56.067Z,15.90
2018-04-25T15:05:23.585Z,15.90
2018-04-25T15:07:51.116Z,15.90
2018-04-25T15:10:20.157Z,16.20
2018-04-25T15:12:47.679Z,16.30
2018-04-25T15:15:15.998Z,16.10
2018-04-25T15:17:43.628Z,16.10
2018-04-25T15:20:11.918Z,15.80
2018-04-25T15:22:40.212Z,15.70
2018-04-25T15:25:07.739Z,15.70
2018-04-25T15:27:36.020Z,15.90
2018-04-25T15:30:04.389Z,15.80
2018-04-25T15:32:32.667Z,15.80
2018-04-25T15:35:00.939Z,15.70
2018-04-25T15:37:29.244Z,15.70
2018-04-25T15:39:56.746Z,15.70
2018-04-25T15:42:24.258Z,15.70
2018-04-25T15:44:51.788Z,15.70
2018-04-25T15:47:19.303Z,15.80
2018-04-25T15:49:46.815Z,15.70
2018-04-25T15:52:15.129Z,15.60
2018-04-25T15:54:42.681Z,15.60
2018-04-25T15:57:10.207Z,15.50
2018-04-25T15:59:37.725Z,15.50
2018-04-25T16:02:05.241Z,15.50
2018-04-25T16:04:33.512Z,15.50
2018-04-25T16:07:01.807Z,15.50
2018-04-25T16:09:29.383Z,15.50
2018-04-25T16:11:56.889Z,15.40
2018-04-25T16:14:24.412Z,15.40
2018-04-25T16:16:51.933Z,15.30
2018-04-25T16:19:20.215Z,15.40
2018-04-25T16:21:48.520Z,15.40
2018-04-25T16:24:16.077Z,15.40
2018-04-25T16:26:43.594Z,15.50
2018-04-25T16:29:11.117Z,15.40
2018-04-25T16:31:38.627Z,15.30
2018-04-25T16:34:06.928Z,15.30
2018-04-25T16:36:34.465Z,15.20
2018-04-25T16:39:02.743Z,15.10
2018-04-25T16:41:31.014Z,15.00
2018-04-25T16:43:59.305Z,14.90
2018-04-25T16:46:27.603Z,14.90
2018-04-25T16:48:55.116Z,14.90
2018-04-25T16:51:22.652Z,14.90
2018-04-25T16:53:50.180Z,14.90
2018-04-25T16:56:17.691Z,14.90
2018-04-25T16:58:45.294Z,14.90
2018-04-25T17:01:12.857Z,14.90
2018-04-25T17:03:40.367Z,14.90
2018-04-25T17:06:07.982Z,14.90
2018-04-25T17:08:35.487Z,14.80
2018-04-25T17:11:02.995Z,14.80
2018-04-25T17:13:30.521Z,14.60
2018-04-25T17:15:58.839Z,14.70
2018-04-25T17:18:26.354Z,14.70
2018-04-25T17:20:59.899Z,14.70
2018-04-25T17:23:27.415Z,14.60
2018-04-25T17:25:54.927Z,14.60
2018-04-25T17:28:22.458Z,14.50
2018-04-25T17:30:49.996Z,14.40
2018-04-25T17:33:17.520Z,14.30
2018-04-25T17:35:45.057Z,14.30
2018-04-25T17:38:12.586Z,14.30
2018-04-25T17:40:40.879Z,14.20
2018-04-25T17:43:08.418Z,14.20
2018-04-25T17:45:36.712Z,14.10
2018-04-25T17:48:04.280Z,14.00
2018-04-25T17:50:31.811Z,14.00
2018-04-25T17:53:00.754Z,13.80
2018-04-25T17:55:29.084Z,13.80
2018-04-25T17:57:57.618Z,13.60
2018-04-25T18:00:25.139Z,13.60
2018-04-25T18:02:53.412Z,13.50
2018-04-25T18:05:21.845Z,13.50
2018-04-25T18:07:49.366Z,13.50
2018-04-25T18:10:16.927Z,13.50
2018-04-25T18:12:44.458Z,13.50
2018-04-25T18:15:13.910Z,13.40
2018-04-25T18:17:41.466Z,13.40
2018-04-25T18:20:09.512Z,13.40
2018-04-25T18:22:37.811Z,13.30
2018-04-25T18:25:05.332Z,13.20
2018-04-25T18:27:33.655Z,13.10
2018-04-25T18:30:01.179Z,13.10
2018-04-25T18:32:29.459Z,13.00
2018-04-25T18:34:57.780Z,13.00
2018-04-25T18:37:25.471Z,12.90
2018-04-25T18:39:53.098Z,12.90
2018-04-25T18:42:20.626Z,12.80
2018-04-25T18:44:48.923Z,12.70
2018-04-25T18:47:16.439Z,12.70
2018-04-25T18:49:44.124Z,12.60
2018-04-25T18:52:12.419Z,12.40
2018-04-25T18:54:40.700Z,12.40
2018-04-25T18:57:08.222Z,12.40
2018-04-25T18:59:35.760Z,12.30
2018-04-25T19:02:03.284Z,12.30
2018-04-25T19:04:30.952Z,12.30
2018-04-25T19:06:58.475Z,12.20
2018-04-25T19:09:26.750Z,12.00
2018-04-25T19:11:55.059Z,12.00
2018-04-25T19:14:22.592Z,12.00
2018-04-25T19:16:51.146Z,12.00
2018-04-25T19:19:18.686Z,11.90
2018-04-25T19:21:46.259Z,12.00
2018-04-25T19:24:13.773Z,12.00
2018-04-25T19:26:41.349Z,11.90
2018-04-25T19:29:09.222Z,11.90
2018-04-25T19:31:36.737Z,11.90
2018-04-25T19:34:05.055Z,11.80
2018-04-25T19:36:32.570Z,11.70
2018-04-25T19:39:00.850Z,11.60
2018-04-25T19:41:28.403Z,11.60
2018-04-25T19:43:55.931Z,11.60
2018-04-25T19:46:23.445Z,11.50
2018-04-25T19:48:51.766Z,11.40
2018-04-25T19:51:19.280Z,11.30
2018-04-25T19:53:47.558Z,11.20
2018-04-25T19:56:15.849Z,11.20
2018-04-25T19:58:43.734Z,11.20
2018-04-25T20:01:11.288Z,11.20
2018-04-25T20:03:38.818Z,11.20
2018-04-25T20:06:07.122Z,11.10
2018-04-25T20:08:34.662Z,11.10
2018-04-25T20:11:02.972Z,11.00
2018-04-25T20:13:30.536Z,11.00
2018-04-25T20:15:58.066Z,11.00
2018-04-25T20:18:26.468Z,10.90
2018-04-25T20:20:53.966Z,10.80
2018-04-25T20:23:21.474Z,10.80
2018-04-25T20:25:48.996Z,10.70
2018-04-25T20:28:16.503Z,10.70
2018-04-25T20:30:44.059Z,10.80
2018-04-25T20:33:11.602Z,10.80
2018-04-25T20:35:39.905Z,10.70
2018-04-25T20:38:07.406Z,10.70
2018-04-25T20:40:35.024Z,10.70
2018-04-25T20:43:02.689Z,10.60
2018-04-25T20:45:30.193Z,10.50
2018-04-25T20:47:57.711Z,10.40
2018-04-25T20:50:25.228Z,10.40
2018-04-25T20:52:53.530Z,10.40
2018-04-25T20:55:21.061Z,10.40
2018-04-25T20:57:49.346Z,10.30
2018-04-25T21:00:17.626Z,10.30
2018-04-25T21:02:46.032Z,10.30
2018-04-25T21:05:13.557Z,10.30
2018-04-25T21:07:41.865Z,10.20
2018-04-25T21:10:09.393Z,10.20
2018-04-25T21:12:37.676Z,10.10
2018-04-25T21:15:05.975Z,10.10
2018-04-25T21:17:33.577Z,10.10
2018-04-25T21:20:01.103Z,10.00
2018-04-25T21:22:28.637Z,10.00
2018-04-25T21:24:57.019Z,9.90
2018-04-25T21:27:24.603Z,9.90
2018-04-25T21:29:52.111Z,9.90
2018-04-25T21:32:19.641Z,9.90
2018-04-25T21:34:47.157Z,9.90
2018-04-25T21:37:15.645Z,9.90
2018-04-25T21:39:43.180Z,9.80
2018-04-25T21:42:10.702Z,9.80
2018-04-25T21:44:38.219Z,9.70
2018-04-25T21:47:06.604Z,9.60
2018-04-25T21:49:34.174Z,9.60
2018-04-25T21:52:01.687Z,9.60
2018-04-25T21:54:29.204Z,9.60
2018-04-25T21:56:56.725Z,9.60
2018-04-25T21:59:25.045Z,9.60
2018-04-25T22:01:52.562Z,9.60
2018-04-25T22:04:20.864Z,9.50
2018-04-25T22:06:48.385Z,9.50
2018-04-25T22:09:15.911Z,9.50
2018-04-25T22:11:43.433Z,9.50
2018-04-25T22:14:11.716Z,9.50
2018-04-25T22:16:39.227Z,9.40
2018-04-25T22:19:06.743Z,9.40
2018-04-25T22:21:34.299Z,9.40
2018-04-25T22:24:01.823Z,9.40
2018-04-25T22:26:29.328Z,9.40
2018-04-25T22:28:56.854Z,9.40
2018-04-25T22:31:25.174Z,9.40
2018-04-25T22:33:52.673Z,9.30
2018-04-25T22:36:21.699Z,9.30
2018-04-25T22:38:49.219Z,9.30
2018-04-25T22:41:16.762Z,9.30
2018-04-25T22:43:44.296Z,9.30
2018-04-25T22:46:11.816Z,9.30
2018-04-25T22:48:40.106Z,9.30
2018-04-25T22:51:08.406Z,9.30
2018-04-25T22:53:35.935Z,9.30
2018-04-25T22:56:04.236Z,9.30
2018-04-25T22:58:31.769Z,9.30
2018-04-25T23:00:59.364Z,9.30
2018-04-25T23:03:26.996Z,9.30
2018-04-25T23:05:55.293Z,9.30
2018-04-25T23:08:22.926Z,9.30
2018-04-25T23:10:50.378Z,9.30
2018-04-25T23:13:17.981Z,9.30
2018-04-25T23:15:45.546Z,9.30
2018-04-25T23:18:13.063Z,9.30
2018-04-25T23:20:40.584Z,9.30
2018-04-25T23:23:08.110Z,9.30
2018-04-25T23:25:35.616Z,9.30
2018-04-25T23:28:03.136Z,9.30
2018-04-25T23:30:30.683Z,9.30
2018-04-25T23:32:58.192Z,9.30
2018-04-25T23:35:25.707Z,9.30
2018-04-25T23:37:53.248Z,9.20
2018-04-25T23:40:21.536Z,9.20
2018-04-25T23:42:49.812Z,9.20
2018-04-25T23:45:18.116Z,9.20
2018-04-25T23:47:45.645Z,9.20
2018-04-25T23:50:13.915Z,9.30
2018-04-25T23:52:42.213Z,9.30
2018-04-25T23:55:09.730Z,9.30
2018-04-25T23:57:37.247Z,9.40
